Overview Statistics Trail Chart Weather Telemetry Raw packets
 

This is the latest recevied weather packets stored in our database for station/object KG5MMT-12. If no packets are shown the sender has not sent any weather packets the latest 10 day(s).

<< 111 112 113 114 115 >>
Time Temp. Humidity Pressure Rain* Wind** Luminosity Snow
1787848760 22.78° C 48% 0 hPa 0 mm - - -
1787848460 22.78° C 49% 0 hPa 0 mm - - -
1787848160 22.78° C 51% 0 hPa 0 mm - - -
1787847860 22.22° C 51% 0 hPa 0 mm - - -
1787847560 22.22° C 50% 0 hPa 0 mm - - -
1787847260 22.22° C 49% 0 hPa 0 mm - - -
1787846960 22.22° C 50% 0 hPa 0 mm - - -
1787846660 22.22° C 49% 0 hPa 0 mm - - -
1787846360 22.22° C 48% 0 hPa 0 mm - - -
1787846060 22.22° C 50% 0 hPa 0 mm - - -
1787845760 21.67° C 51% 0 hPa 0 mm - - -
1787845460 21.67° C 48% 0 hPa 0 mm - - -
1787845160 21.67° C 52% 0 hPa 0 mm - - -
1787844860 21.67° C 55% 0 hPa 0 mm - - -
1787844560 21.11° C 52% 0 hPa 0 mm - - -
1787844260 21.11° C 53% 0 hPa 0 mm - - -
1787843960 20.56° C 52% 0 hPa 0 mm - - -
1787843660 20° C 55% 0 hPa 0 mm - - -
1787843360 19.44° C 58% 0 hPa 0 mm - - -
1787843060 18.89° C 61% 0 hPa 0 mm - - -
1787842760 17.78° C 66% 0 hPa 0 mm - - -
1787842460 16.67° C 76% 0 hPa 0 mm - - -
1787842160 15.56° C 81% 0 hPa 0 mm - - -
1787841860 15° C 81% 0 hPa 0 mm - - -
1787841560 14.44° C 83% 0 hPa 0 mm - - -

* Rain latest hour (hover to see other rain measurements)
** Current wind speed in m/s (hover to see current wind gust speed)